Time;durP1;ratioP1;P1;durP2;ratioP2;P2;SDS_P1;SDS_P2;PMS_P1;PMS_P2;Temp;Humidity;BMP_temperature;BMP_pressure;BME280_temperature;BME280_humidity;BME280_pressure;Samples;Min_cycle;Max_cycle;Signal;HPM_P1;HPM_P2
2022/08/06 00:01:52;;;;;;;0.00;0.00;;;15.20;99.90;;;;;;5036125;28;20525;-65
2022/08/06 00:04:18;;;;;;;0.00;0.00;;;15.30;99.90;;;;;;5037074;28;20044;-65
2022/08/06 00:06:44;;;;;;;0.00;0.00;;;15.20;99.90;;;;;;5055747;28;20132;-65
2022/08/06 00:09:11;;;;;;;0.00;0.00;;;15.20;99.90;;;;;;5042456;28;20132;-65
2022/08/06 00:11:40;;;;;;;0.00;0.00;;;15.20;99.90;;;;;;5030002;28;20054;-65
2022/08/06 00:14:07;;;;;;;0.00;0.00;;;15.20;99.90;;;;;;5035156;28;20068;-65
2022/08/06 00:16:33;;;;;;;0.10;0.10;;;15.20;99.90;;;;;;5042789;28;20087;-65
2022/08/06 00:18:58;;;;;;;0.03;0.03;;;15.20;99.90;;;;;;5047513;28;20037;-65
2022/08/06 00:21:24;;;;;;;0.00;0.00;;;15.20;99.90;;;;;;5039546;28;20049;-65
2022/08/06 00:23:49;;;;;;;0.10;0.10;;;15.20;99.90;;;;;;5040352;28;20052;-65
2022/08/06 00:26:15;;;;;;;0.10;0.10;;;15.20;99.90;;;;;;5035282;28;20041;-65
2022/08/06 00:28:40;;;;;;;0.00;0.00;;;15.20;99.90;;;;;;5049350;28;20546;-65
2022/08/06 00:31:07;;;;;;;0.10;0.10;;;15.20;99.90;;;;;;5047556;28;20547;-65
2022/08/06 00:33:33;;;;;;;0.00;0.00;;;15.20;99.90;;;;;;5037517;28;20561;-65
2022/08/06 00:35:59;;;;;;;0.00;0.00;;;15.10;99.90;;;;;;5060106;28;20476;-65
2022/08/06 00:38:24;;;;;;;0.22;0.22;;;15.10;99.90;;;;;;5047966;28;20045;-65
2022/08/06 00:40:51;;;;;;;0.00;0.00;;;15.10;99.90;;;;;;5046581;28;20629;-65
2022/08/06 00:43:17;;;;;;;6.78;0.68;;;15.00;99.90;;;;;;5037274;28;20079;-65
2022/08/06 00:45:42;;;;;;;0.00;0.00;;;15.00;99.90;;;;;;5032260;28;20409;-65
2022/08/06 00:48:08;;;;;;;44.92;2.28;;;14.90;99.90;;;;;;5040405;28;20048;-65
2022/08/06 00:50:34;;;;;;;21.40;0.55;;;14.80;99.90;;;;;;5043084;28;20044;-65
2022/08/06 00:53:01;;;;;;;0.38;0.38;;;14.80;99.90;;;;;;5033075;28;20162;-65
2022/08/06 00:55:27;;;;;;;0.10;0.10;;;14.80;99.90;;;;;;5043394;28;20392;-65
2022/08/06 00:57:52;;;;;;;0.00;0.00;;;14.70;99.90;;;;;;5039354;28;20048;-65
2022/08/06 01:00:18;;;;;;;0.00;0.00;;;14.70;99.90;;;;;;5035018;28;20563;-65
2022/08/06 01:02:44;;;;;;;0.00;0.00;;;14.60;99.90;;;;;;5047715;28;20063;-65
2022/08/06 01:05:10;;;;;;;0.10;0.10;;;14.60;99.90;;;;;;5029181;28;20042;-65
2022/08/06 01:07:35;;;;;;;0.10;0.10;;;14.60;99.90;;;;;;5038923;28;20049;-65
2022/08/06 01:10:01;;;;;;;0.10;0.10;;;14.60;99.90;;;;;;5033645;28;20389;-65
2022/08/06 01:12:27;;;;;;;0.00;0.00;;;14.70;99.90;;;;;;5048648;28;20127;-65
2022/08/06 01:14:53;;;;;;;0.00;0.00;;;14.60;99.90;;;;;;5045244;28;20451;-65
2022/08/06 01:17:30;;;;;;;0.10;0.10;;;14.60;99.90;;;;;;5046052;28;20041;-65
2022/08/06 01:20:23;;;;;;;0.00;0.00;;;14.60;99.90;;;;;;5046372;28;20850;-65
2022/08/06 01:23:15;;;;;;;0.00;0.00;;;14.50;99.90;;;;;;5046568;28;20055;-65
2022/08/06 01:26:09;;;;;;;0.03;0.03;;;14.40;99.90;;;;;;5037617;28;20049;-65
2022/08/06 01:28:41;;;;;;;0.10;0.10;;;14.30;99.90;;;;;;5029918;28;20103;-65
2022/08/06 01:31:14;;;;;;;0.10;0.10;;;14.30;99.90;;;;;;5048040;28;20526;-65
2022/08/06 01:33:46;;;;;;;0.10;0.10;;;14.20;99.90;;;;;;5031969;28;21160;-66
2022/08/06 01:36:37;;;;;;;0.20;0.17;;;14.20;99.90;;;;;;5047992;28;20840;-65
2022/08/06 01:39:03;;;;;;;0.03;0.03;;;14.20;99.90;;;;;;5042743;28;20057;-65
2022/08/06 01:41:43;;;;;;;0.10;0.10;;;14.10;99.90;;;;;;5033818;28;20048;-65
2022/08/06 01:44:20;;;;;;;0.10;0.10;;;14.10;99.90;;;;;;5042027;28;20124;-65
2022/08/06 01:46:55;;;;;;;0.20;0.20;;;14.00;99.90;;;;;;5029038;28;20077;-65
2022/08/06 01:49:24;;;;;;;0.38;0.38;;;14.00;99.90;;;;;;5032700;28;20048;-65
2022/08/06 01:51:52;;;;;;;0.08;0.08;;;14.00;99.90;;;;;;5031926;28;20077;-65
2022/08/06 01:54:19;;;;;;;0.10;0.10;;;14.00;99.90;;;;;;5061551;28;20789;-65
2022/08/06 01:56:49;;;;;;;0.00;0.00;;;14.00;99.90;;;;;;5045251;28;20048;-65
2022/08/06 01:59:17;;;;;;;0.00;0.00;;;14.00;99.90;;;;;;5046987;28;20072;-65
2022/08/06 02:01:46;;;;;;;0.10;0.10;;;14.00;99.90;;;;;;5038790;28;20464;-65
2022/08/06 02:04:14;;;;;;;0.20;0.20;;;14.00;99.90;;;;;;5040445;28;20091;-65
2022/08/06 02:06:43;;;;;;;1.00;0.52;;;14.00;99.90;;;;;;5046861;28;20073;-65
2022/08/06 02:09:13;;;;;;;0.00;0.00;;;14.00;99.90;;;;;;5035635;28;20501;-65
2022/08/06 02:11:40;;;;;;;0.20;0.20;;;14.00;99.90;;;;;;5034619;28;20087;-65
2022/08/06 02:14:08;;;;;;;0.13;0.13;;;14.00;99.90;;;;;;5043671;28;20064;-65
2022/08/06 02:16:39;;;;;;;0.05;0.05;;;14.00;99.90;;;;;;5047857;28;20033;-65
2022/08/06 02:19:06;;;;;;;0.00;0.00;;;14.00;99.90;;;;;;5029518;28;20516;-65
2022/08/06 02:21:34;;;;;;;0.20;0.20;;;14.00;99.90;;;;;;5028045;28;20099;-65
2022/08/06 02:24:04;;;;;;;0.10;0.10;;;14.00;99.90;;;;;;5042299;28;20111;-65
2022/08/06 02:26:32;;;;;;;0.00;0.00;;;14.00;99.90;;;;;;5036005;28;20045;-65
2022/08/06 02:28:59;;;;;;;0.10;0.10;;;13.90;99.90;;;;;;5038018;28;20108;-65
2022/08/06 02:31:25;;;;;;;7.05;3.83;;;13.90;99.90;;;;;;5033727;28;20037;-65
2022/08/06 02:33:51;;;;;;;0.20;0.20;;;13.90;99.90;;;;;;5031891;28;20082;-65
2022/08/06 02:36:24;;;;;;;0.10;0.10;;;13.90;99.90;;;;;;5063600;28;20130;-65
2022/08/06 02:38:57;;;;;;;0.10;0.10;;;13.80;99.90;;;;;;5044247;28;20599;-65
2022/08/06 02:41:43;;;;;;;0.10;0.10;;;13.90;99.90;;;;;;5032938;28;20037;-65
2022/08/06 02:44:17;;;;;;;0.20;0.20;;;13.90;99.90;;;;;;5038423;28;20074;-65
2022/08/06 02:47:16;;;;;;;0.10;0.10;;;13.90;99.90;;;;;;5033263;28;20041;-65
2022/08/06 02:49:45;;;;;;;0.10;0.10;;;13.90;99.90;;;;;;5040700;28;20060;-65
2022/08/06 02:52:19;;;;;;;1.35;0.32;;;13.80;99.90;;;;;;5027648;28;20711;-65
2022/08/06 02:54:55;;;;;;;0.10;0.10;;;13.70;99.90;;;;;;5033533;28;20076;-65
2022/08/06 02:57:24;;;;;;;0.10;0.10;;;13.70;99.90;;;;;;5034689;28;20496;-64
2022/08/06 02:59:54;;;;;;;0.00;0.00;;;13.70;99.90;;;;;;5048560;28;20047;-66
2022/08/06 03:02:23;;;;;;;0.20;0.20;;;13.70;99.90;;;;;;5058138;28;20374;-65
2022/08/06 03:04:52;;;;;;;0.45;0.45;;;13.70;99.90;;;;;;5052420;28;20049;-65
2022/08/06 03:07:19;;;;;;;0.10;0.10;;;13.70;99.90;;;;;;5035436;28;20563;-65
2022/08/06 03:09:48;;;;;;;0.10;0.10;;;13.70;99.90;;;;;;5038931;28;20041;-65
2022/08/06 03:12:16;;;;;;;0.10;0.10;;;13.70;99.90;;;;;;5038188;28;20396;-65
2022/08/06 03:14:43;;;;;;;0.10;0.10;;;13.70;99.90;;;;;;5044643;28;20038;-65
2022/08/06 03:17:12;;;;;;;0.00;0.00;;;13.70;99.90;;;;;;5042543;28;20152;-65
2022/08/06 03:19:40;;;;;;;0.03;0.03;;;13.80;99.90;;;;;;5033859;28;20049;-65
2022/08/06 03:22:08;;;;;;;0.00;0.00;;;13.80;99.90;;;;;;5050628;28;20045;-65
2022/08/06 03:24:36;;;;;;;0.00;0.00;;;13.80;99.90;;;;;;5038395;28;20049;-65
2022/08/06 03:27:03;;;;;;;0.00;0.00;;;13.80;99.90;;;;;;5059057;28;20072;-65
2022/08/06 03:29:30;;;;;;;0.10;0.10;;;13.80;99.90;;;;;;5042520;28;20059;-65
2022/08/06 03:31:56;;;;;;;0.10;0.10;;;13.80;99.90;;;;;;5038107;28;20183;-65
2022/08/06 03:34:22;;;;;;;0.05;0.05;;;13.90;99.90;;;;;;5049554;28;20041;-65
2022/08/06 03:36:49;;;;;;;0.15;0.13;;;13.90;99.90;;;;;;5030263;28;20042;-65
2022/08/06 03:39:16;;;;;;;0.10;0.10;;;13.90;99.90;;;;;;5040880;28;20069;-65
2022/08/06 03:41:43;;;;;;;0.15;0.13;;;13.90;99.90;;;;;;5048848;28;20076;-65
2022/08/06 03:44:09;;;;;;;0.00;0.00;;;13.90;99.90;;;;;;5045622;28;20045;-65
2022/08/06 03:46:41;;;;;;;1.08;0.98;;;13.90;99.90;;;;;;5042441;28;20044;-65
2022/08/06 03:49:11;;;;;;;0.00;0.00;;;13.90;99.90;;;;;;5036257;28;20099;-65
2022/08/06 03:51:38;;;;;;;0.10;0.10;;;13.70;99.90;;;;;;5050675;28;20052;-65
2022/08/06 03:54:06;;;;;;;0.20;0.20;;;13.90;99.90;;;;;;5043207;28;20048;-65
2022/08/06 03:56:35;;;;;;;0.10;0.10;;;13.90;99.90;;;;;;5038218;28;20108;-65
2022/08/06 03:59:03;;;;;;;0.03;0.03;;;13.80;99.90;;;;;;5047975;28;20045;-65
2022/08/06 04:01:32;;;;;;;0.10;0.10;;;13.90;99.90;;;;;;5049290;28;20132;-65
2022/08/06 04:03:59;;;;;;;0.00;0.00;;;13.90;99.90;;;;;;5041059;28;20069;-65
2022/08/06 04:06:25;;;;;;;0.00;0.00;;;13.80;99.90;;;;;;5040708;28;20044;-65
2022/08/06 04:08:52;;;;;;;0.00;0.00;;;13.80;99.90;;;;;;5040509;28;20067;-65
2022/08/06 04:11:19;;;;;;;0.00;0.00;;;13.70;99.90;;;;;;5040877;28;20146;-65
2022/08/06 04:13:45;;;;;;;0.10;0.10;;;13.60;99.90;;;;;;5043670;28;20124;-65
2022/08/06 04:16:12;;;;;;;0.00;0.00;;;13.60;99.90;;;;;;5040264;28;20049;-65
2022/08/06 04:18:40;;;;;;;0.03;0.03;;;13.60;99.90;;;;;;5042281;28;20136;-65
2022/08/06 04:21:10;;;;;;;0.00;0.00;;;13.70;99.90;;;;;;5062545;28;20045;-65
2022/08/06 04:23:37;;;;;;;0.30;0.30;;;13.60;99.90;;;;;;5044215;28;20396;-65
2022/08/06 04:26:05;;;;;;;0.10;0.10;;;13.50;99.90;;;;;;5037925;28;20053;-65
2022/08/06 04:28:35;;;;;;;0.10;0.10;;;13.60;99.90;;;;;;5036599;28;20174;-65
2022/08/06 04:31:01;;;;;;;1.02;0.30;;;13.50;99.90;;;;;;5038857;28;20138;-65
2022/08/06 04:33:29;;;;;;;0.10;0.10;;;13.60;99.90;;;;;;5044674;28;20052;-65
2022/08/06 04:35:55;;;;;;;0.10;0.10;;;13.50;99.90;;;;;;5038161;28;20071;-65
2022/08/06 04:38:23;;;;;;;0.57;0.57;;;13.50;99.90;;;;;;5045366;28;20044;-65
2022/08/06 04:40:49;;;;;;;0.00;0.00;;;13.60;99.90;;;;;;5049355;28;20053;-65
2022/08/06 04:43:15;;;;;;;0.20;0.20;;;13.60;99.90;;;;;;5046704;28;20048;-65
2022/08/06 04:45:42;;;;;;;0.10;0.10;;;13.80;99.90;;;;;;5036318;28;20045;-65
2022/08/06 04:48:09;;;;;;;0.10;0.10;;;13.90;99.90;;;;;;5029906;28;20064;-65
2022/08/06 04:50:36;;;;;;;0.10;0.10;;;14.00;99.90;;;;;;5030205;28;20049;-65
2022/08/06 04:53:13;;;;;;;0.10;0.10;;;14.10;99.90;;;;;;5028155;28;20056;-65
2022/08/06 04:55:40;;;;;;;0.35;0.35;;;14.20;99.90;;;;;;5039351;28;20443;-65
2022/08/06 04:58:07;;;;;;;0.10;0.10;;;14.20;99.90;;;;;;5030769;28;20382;-65
2022/08/06 05:00:37;;;;;;;0.10;0.10;;;14.30;99.90;;;;;;5043686;28;20053;-65
2022/08/06 05:03:04;;;;;;;0.00;0.00;;;14.30;99.90;;;;;;5033947;28;20397;-65
2022/08/06 05:05:37;;;;;;;0.10;0.10;;;14.30;99.90;;;;;;5045883;28;20086;-65
2022/08/06 05:08:05;;;;;;;0.10;0.10;;;14.30;99.90;;;;;;5047636;28;20048;-65
2022/08/06 05:10:37;;;;;;;0.10;0.10;;;14.30;99.90;;;;;;5038338;28;20037;-65
2022/08/06 05:13:05;;;;;;;0.10;0.10;;;14.40;99.90;;;;;;5036372;28;20053;-65
2022/08/06 05:15:40;;;;;;;0.10;0.10;;;14.40;99.90;;;;;;5037433;28;20452;-65
2022/08/06 05:18:23;;;;;;;0.03;0.03;;;14.50;99.90;;;;;;5034050;28;20128;-65
2022/08/06 05:20:54;;;;;;;0.10;0.10;;;14.60;99.90;;;;;;5032126;28;20143;-65
2022/08/06 05:23:40;;;;;;;0.03;0.03;;;14.70;99.90;;;;;;5059460;28;20396;-65
2022/08/06 05:26:07;;;;;;;0.35;0.20;;;14.80;99.90;;;;;;5040394;28;20080;-65
2022/08/06 05:28:32;;;;;;;0.10;0.10;;;14.80;99.90;;;;;;5027065;28;20384;-65
2022/08/06 05:30:58;;;;;;;0.00;0.00;;;14.90;99.90;;;;;;5032528;28;20190;-66
2022/08/06 05:33:30;;;;;;;0.00;0.00;;;15.00;99.90;;;;;;5041832;28;20042;-66
2022/08/06 05:35:58;;;;;;;0.17;0.17;;;15.00;99.90;;;;;;5040962;28;20439;-65
2022/08/06 05:38:25;;;;;;;0.05;0.05;;;15.10;99.90;;;;;;5047487;28;20041;-66
2022/08/06 05:40:55;;;;;;;0.08;0.08;;;15.10;99.90;;;;;;5045796;28;20451;-66
2022/08/06 05:43:22;;;;;;;0.10;0.10;;;15.10;99.90;;;;;;5040845;28;20045;-65
2022/08/06 05:45:49;;;;;;;0.10;0.10;;;15.10;99.90;;;;;;5036826;28;20040;-66
2022/08/06 05:48:18;;;;;;;0.10;0.10;;;15.10;99.90;;;;;;5032905;28;20067;-65
2022/08/06 05:50:58;;;;;;;0.40;0.40;;;15.20;99.90;;;;;;5034032;28;20040;-65
2022/08/06 05:53:34;;;;;;;0.10;0.10;;;15.20;99.90;;;;;;5048451;28;20075;-66
2022/08/06 05:56:07;;;;;;;0.00;0.00;;;15.30;99.90;;;;;;5045969;28;20052;-66
2022/08/06 05:58:41;;;;;;;0.00;0.00;;;15.40;99.90;;;;;;5031436;28;20041;-65
2022/08/06 06:01:07;;;;;;;0.00;0.00;;;15.50;99.90;;;;;;5046935;28;20323;-65
2022/08/06 06:03:33;;;;;;;0.47;0.47;;;15.50;99.90;;;;;;5031228;28;20033;-65
2022/08/06 06:06:01;;;;;;;0.10;0.10;;;15.60;99.90;;;;;;5046272;28;20094;-65
2022/08/06 06:08:27;;;;;;;0.00;0.00;;;15.70;99.90;;;;;;5041827;28;20102;-65
2022/08/06 06:10:53;;;;;;;0.10;0.10;;;15.80;99.90;;;;;;5034307;28;20124;-65
2022/08/06 06:13:24;;;;;;;0.10;0.10;;;15.80;99.90;;;;;;5042872;28;20037;-65
2022/08/06 06:16:00;;;;;;;0.00;0.00;;;15.80;99.90;;;;;;5047670;28;20512;-66
2022/08/06 06:18:46;;;;;;;0.00;0.00;;;15.80;99.90;;;;;;5044899;28;20072;-65
2022/08/06 06:21:20;;;;;;;2.28;1.75;;;15.90;99.90;;;;;;5028909;28;20041;-65
2022/08/06 06:23:56;;;;;;;0.00;0.00;;;16.00;99.90;;;;;;5045826;28;20049;-66
2022/08/06 06:26:50;;;;;;;0.00;0.00;;;16.00;99.90;;;;;;5047505;28;20045;-65
2022/08/06 06:29:28;;;;;;;0.08;0.08;;;16.10;99.90;;;;;;5028206;28;20050;-65
2022/08/06 06:32:12;;;;;;;0.10;0.10;;;16.20;99.90;;;;;;5030199;28;20045;-65
2022/08/06 06:34:53;;;;;;;0.05;0.05;;;16.20;99.90;;;;;;5028320;28;20095;-65
2022/08/06 06:37:23;;;;;;;0.10;0.10;;;16.20;99.90;;;;;;5036183;28;20041;-66
2022/08/06 06:40:01;;;;;;;0.10;0.10;;;16.30;99.90;;;;;;5041794;28;20049;-66
2022/08/06 06:42:36;;;;;;;0.50;0.50;;;16.30;99.90;;;;;;5035918;28;20053;-65
2022/08/06 06:45:35;;;;;;;0.00;0.00;;;16.40;99.90;;;;;;5040911;28;20459;-65
2022/08/06 06:48:01;;;;;;;0.10;0.10;;;16.40;99.90;;;;;;5026275;28;20064;-66
2022/08/06 06:50:32;;;;;;;0.00;0.00;;;16.50;99.90;;;;;;5028207;28;20049;-65
2022/08/06 06:52:58;;;;;;;0.00;0.00;;;16.50;99.90;;;;;;5026539;28;20052;-66
2022/08/06 06:55:32;;;;;;;0.30;0.30;;;16.60;99.90;;;;;;5027022;28;20037;-66
2022/08/06 06:58:10;;;;;;;0.10;0.10;;;16.60;99.90;;;;;;5026501;28;20076;-66
2022/08/06 07:00:37;;;;;;;0.00;0.00;;;16.70;99.90;;;;;;5026275;28;20057;-66
2022/08/06 07:03:04;;;;;;;0.00;0.00;;;16.80;99.90;;;;;;5027997;28;20054;-65
2022/08/06 07:05:32;;;;;;;0.10;0.10;;;16.80;99.90;;;;;;5027198;28;20045;-66
2022/08/06 07:07:59;;;;;;;0.22;0.22;;;16.80;99.90;;;;;;5052492;28;20045;-66
2022/08/06 07:10:25;;;;;;;0.10;0.10;;;16.90;99.90;;;;;;5047607;28;20041;-65
2022/08/06 07:12:51;;;;;;;0.10;0.10;;;16.90;99.90;;;;;;5039461;28;20132;-66
2022/08/06 07:15:20;;;;;;;0.10;0.10;;;17.00;99.90;;;;;;5036345;28;20057;-65
2022/08/06 07:17:49;;;;;;;0.10;0.10;;;17.10;99.90;;;;;;5044301;28;20049;-65
2022/08/06 07:20:19;;;;;;;0.43;0.40;;;17.10;99.90;;;;;;5036323;28;20056;-66
2022/08/06 07:22:45;;;;;;;0.10;0.10;;;17.10;99.90;;;;;;5040521;28;20053;-65
2022/08/06 07:25:13;;;;;;;0.10;0.10;;;17.20;99.90;;;;;;5045893;28;20036;-66
2022/08/06 07:27:41;;;;;;;0.10;0.10;;;17.30;99.90;;;;;;5039407;28;20103;-65
2022/08/06 07:30:08;;;;;;;0.20;0.20;;;17.20;99.90;;;;;;5042651;28;20067;-65
2022/08/06 07:32:35;;;;;;;0.00;0.00;;;17.20;99.90;;;;;;5041426;28;20045;-65
2022/08/06 07:35:03;;;;;;;0.30;0.30;;;17.10;99.90;;;;;;5042942;28;20468;-65
2022/08/06 07:37:30;;;;;;;0.10;0.10;;;17.10;99.90;;;;;;5045724;28;20037;-66
2022/08/06 07:39:59;;;;;;;0.00;0.00;;;17.20;99.90;;;;;;5043051;28;20072;-65
2022/08/06 07:42:26;;;;;;;0.10;0.10;;;17.30;99.90;;;;;;5039458;28;20039;-65
2022/08/06 07:44:57;;;;;;;0.10;0.10;;;17.30;99.90;;;;;;5043505;28;20120;-65
2022/08/06 07:47:32;;;;;;;0.00;0.00;;;17.40;99.90;;;;;;5049627;28;20401;-66
2022/08/06 07:49:59;;;;;;;0.00;0.00;;;17.50;99.90;;;;;;5035320;28;20124;-66
2022/08/06 07:52:26;;;;;;;0.10;0.10;;;17.50;99.90;;;;;;5041508;28;20087;-65
2022/08/06 07:54:53;;;;;;;0.08;0.08;;;17.40;99.90;;;;;;5033179;28;20045;-65
2022/08/06 07:57:20;;;;;;;0.10;0.10;;;17.40;99.90;;;;;;5041019;28;20558;-65
2022/08/06 07:59:46;;;;;;;0.10;0.10;;;17.40;99.90;;;;;;5051269;28;20037;-66
2022/08/06 08:02:13;;;;;;;0.30;0.30;;;17.40;99.90;;;;;;5030988;28;20103;-65
2022/08/06 08:07:24;;;;;;;0.00;0.00;;;17.30;99.90;;;;;;5030402;28;20680;-65
2022/08/06 08:09:50;;;;;;;0.00;0.00;;;17.30;99.90;;;;;;5030681;28;20140;-65
2022/08/06 08:12:18;;;;;;;0.10;0.10;;;17.20;99.90;;;;;;5031157;28;20053;-65
2022/08/06 08:14:45;;;;;;;0.00;0.00;;;17.20;99.90;;;;;;5031074;28;20049;-65
2022/08/06 08:17:10;;;;;;;0.10;0.10;;;17.30;99.90;;;;;;5029692;28;20547;-65
2022/08/06 08:19:37;;;;;;;0.10;0.10;;;17.40;99.90;;;;;;5030720;28;20045;-65
2022/08/06 08:22:15;;;;;;;0.00;0.00;;;17.60;99.90;;;;;;5037946;28;20396;-65
2022/08/06 08:24:44;;;;;;;0.00;0.00;;;17.70;99.90;;;;;;5040588;28;20061;-65
2022/08/06 08:27:10;;;;;;;0.10;0.10;;;17.90;99.90;;;;;;5041096;28;20052;-65
2022/08/06 08:29:41;;;;;;;0.10;0.10;;;18.00;99.90;;;;;;5039247;28;20622;-65
2022/08/06 08:32:08;;;;;;;0.00;0.00;;;18.00;99.90;;;;;;5039944;28;20055;-66
2022/08/06 08:34:35;;;;;;;0.00;0.00;;;18.00;99.90;;;;;;5048024;28;20037;-66
2022/08/06 08:37:01;;;;;;;0.00;0.00;;;18.10;99.90;;;;;;5045672;28;20041;-65
2022/08/06 08:39:27;;;;;;;0.10;0.10;;;18.30;99.90;;;;;;5034846;28;20096;-65
2022/08/06 08:42:10;;;;;;;0.00;0.00;;;18.40;99.90;;;;;;5044029;28;20049;-66
2022/08/06 08:44:36;;;;;;;0.00;0.00;;;18.40;99.90;;;;;;5049937;28;20055;-66
2022/08/06 08:47:03;;;;;;;0.10;0.10;;;18.30;99.90;;;;;;5030128;28;20053;-66
2022/08/06 08:49:46;;;;;;;0.10;0.10;;;18.40;99.90;;;;;;5030344;28;20041;-65
2022/08/06 08:52:19;;;;;;;0.10;0.10;;;18.60;99.90;;;;;;5035702;28;20393;-65
2022/08/06 08:54:48;;;;;;;0.00;0.00;;;18.80;99.90;;;;;;5030610;28;20107;-65
2022/08/06 08:57:15;;;;;;;0.10;0.10;;;18.90;99.90;;;;;;5029240;28;20057;-65
2022/08/06 08:59:41;;;;;;;0.10;0.10;;;19.00;99.90;;;;;;5037375;28;20577;-66
2022/08/06 09:02:11;;;;;;;0.03;0.03;;;18.90;99.90;;;;;;5036992;28;20540;-65
2022/08/06 09:04:38;;;;;;;0.10;0.10;;;18.80;99.90;;;;;;5038636;28;20381;-65
2022/08/06 09:07:05;;;;;;;0.90;0.45;;;18.90;99.90;;;;;;5049419;28;20052;-65
2022/08/06 09:09:34;;;;;;;0.10;0.10;;;18.80;99.90;;;;;;5037649;28;20045;-65
2022/08/06 09:12:00;;;;;;;1.73;0.75;;;18.90;99.90;;;;;;5029580;28;20492;-65
2022/08/06 09:14:26;;;;;;;0.60;0.60;;;18.90;99.90;;;;;;5046449;28;20037;-65
2022/08/06 09:16:52;;;;;;;0.13;0.13;;;19.00;99.90;;;;;;5046137;28;20140;-65
2022/08/06 09:19:18;;;;;;;0.08;0.08;;;19.10;99.90;;;;;;5043687;28;20080;-65
2022/08/06 09:21:44;;;;;;;0.00;0.00;;;19.30;99.90;;;;;;5028493;28;20128;-65
2022/08/06 09:24:10;;;;;;;0.20;0.20;;;19.50;99.90;;;;;;5029121;28;20096;-65
2022/08/06 09:26:35;;;;;;;0.00;0.00;;;19.70;99.90;;;;;;5039125;28;20045;-65
2022/08/06 09:29:01;;;;;;;0.00;0.00;;;19.90;99.90;;;;;;5048275;28;20465;-65
2022/08/06 09:31:27;;;;;;;0.10;0.10;;;20.00;99.90;;;;;;5043238;28;20049;-65
2022/08/06 09:34:02;;;;;;;0.00;0.00;;;20.40;99.90;;;;;;5036697;28;20038;-66
2022/08/06 09:36:28;;;;;;;0.00;0.00;;;20.20;99.90;;;;;;5044173;28;20413;-66
2022/08/06 09:38:56;;;;;;;0.10;0.10;;;20.00;99.90;;;;;;5032381;28;20129;-65
2022/08/06 09:41:24;;;;;;;0.10;0.10;;;19.70;99.90;;;;;;5035773;28;20099;-65
2022/08/06 09:43:52;;;;;;;0.20;0.20;;;19.50;99.90;;;;;;5048454;28;20040;-65
2022/08/06 09:46:37;;;;;;;0.28;0.28;;;19.40;99.90;;;;;;5035415;28;20120;-64
2022/08/06 09:49:03;;;;;;;0.20;0.20;;;19.20;99.90;;;;;;5043202;28;20053;-66
2022/08/06 09:51:32;;;;;;;0.10;0.10;;;19.30;99.90;;;;;;5046507;28;20053;-66
2022/08/06 09:53:59;;;;;;;0.10;0.10;;;19.30;99.90;;;;;;5041579;28;20048;-65
2022/08/06 09:56:27;;;;;;;0.30;0.30;;;19.20;99.90;;;;;;5027952;28;20079;-65
2022/08/06 09:59:01;;;;;;;0.10;0.10;;;19.20;99.90;;;;;;5032628;28;20073;-66
2022/08/06 10:01:27;;;;;;;0.05;0.05;;;19.20;99.90;;;;;;5046898;28;20535;-65
2022/08/06 10:03:56;;;;;;;0.10;0.10;;;19.30;99.90;;;;;;5041429;28;20528;-66
2022/08/06 10:06:22;;;;;;;0.00;0.00;;;19.30;99.90;;;;;;5028036;28;20496;-65
2022/08/06 10:08:50;;;;;;;0.35;0.35;;;19.30;99.90;;;;;;5027956;28;20693;-65
2022/08/06 10:11:33;;;;;;;0.75;0.32;;;19.40;99.90;;;;;;5027769;28;20089;-66
2022/08/06 10:13:58;;;;;;;0.10;0.10;;;19.50;99.90;;;;;;5029489;28;20084;-66
2022/08/06 10:16:26;;;;;;;0.00;0.00;;;19.60;99.90;;;;;;5026887;28;20076;-66
2022/08/06 10:18:53;;;;;;;0.00;0.00;;;20.10;99.90;;;;;;5028888;28;20132;-66
2022/08/06 10:21:22;;;;;;;0.10;0.10;;;20.60;99.90;;;;;;5045130;28;20436;-66
2022/08/06 10:23:52;;;;;;;0.10;0.10;;;21.20;99.90;;;;;;5027675;28;20076;-66
2022/08/06 10:26:24;;;;;;;0.00;0.00;;;21.70;99.90;;;;;;5028185;28;20100;-66
2022/08/06 10:28:51;;;;;;;0.00;0.00;;;22.00;99.90;;;;;;5031762;28;20138;-66
2022/08/06 10:31:18;;;;;;;0.10;0.10;;;22.10;99.90;;;;;;5043736;28;20041;-66
2022/08/06 10:34:11;;;;;;;0.28;0.28;;;22.20;99.90;;;;;;5034759;28;20107;-66
2022/08/06 10:36:57;;;;;;;0.00;0.00;;;22.40;99.90;;;;;;5031417;28;20037;-66
2022/08/06 10:39:27;;;;;;;0.00;0.00;;;22.40;99.90;;;;;;5035550;28;20061;-66
2022/08/06 10:41:55;;;;;;;0.00;0.00;;;22.20;99.70;;;;;;5046207;28;20119;-66
2022/08/06 10:44:22;;;;;;;0.10;0.10;;;22.40;99.90;;;;;;5033364;28;20136;-66
2022/08/06 10:46:51;;;;;;;0.00;0.00;;;22.40;99.90;;;;;;5035289;28;20155;-65
2022/08/06 10:49:18;;;;;;;0.85;0.20;;;22.00;99.90;;;;;;5043511;28;20400;-65
2022/08/06 10:51:44;;;;;;;0.20;0.20;;;22.10;99.90;;;;;;5027409;28;20053;-66
2022/08/06 10:54:10;;;;;;;0.00;0.00;;;22.30;99.90;;;;;;5035186;28;20064;-66
2022/08/06 10:56:37;;;;;;;2.60;1.05;;;22.40;99.90;;;;;;5031111;28;20125;-66
2022/08/06 10:59:05;;;;;;;0.10;0.10;;;22.20;99.90;;;;;;5041647;28;20040;-65
2022/08/06 11:01:43;;;;;;;0.15;0.15;;;22.50;99.90;;;;;;5033157;28;20107;-66
2022/08/06 11:05:07;;;;;;;0.20;0.20;;;22.50;99.90;;;;;;5027646;28;20482;-66
2022/08/06 11:07:58;;;;;;;0.00;0.00;;;22.60;99.90;;;;;;5027536;28;20366;-66
2022/08/06 11:10:50;;;;;;;0.00;0.00;;;22.10;99.90;;;;;;5039932;28;20065;-66
2022/08/06 11:13:57;;;;;;;0.00;0.00;;;22.00;99.90;;;;;;5039280;28;20049;-66
2022/08/06 11:16:24;;;;;;;0.20;0.13;;;21.80;99.20;;;;;;5021597;28;20404;-66
2022/08/06 11:19:10;;;;;;;0.00;0.00;;;21.90;99.90;;;;;;5047819;28;20045;-66
2022/08/06 11:21:44;;;;;;;0.20;0.20;;;22.40;99.90;;;;;;5034880;28;20049;-66
2022/08/06 11:24:12;;;;;;;0.08;0.08;;;22.40;99.90;;;;;;5048034;28;20045;-66
2022/08/06 11:26:40;;;;;;;0.00;0.00;;;22.10;99.90;;;;;;5050748;28;20055;-66
2022/08/06 11:29:17;;;;;;;0.00;0.00;;;22.40;99.80;;;;;;5049754;28;20052;-66
2022/08/06 11:31:48;;;;;;;0.20;0.20;;;22.60;99.90;;;;;;5044481;28;20090;-66
2022/08/06 11:34:16;;;;;;;0.00;0.00;;;22.70;99.40;;;;;;5039155;28;20041;-66
2022/08/06 11:36:56;;;;;;;0.00;0.00;;;22.90;99.90;;;;;;5048531;28;20052;-66
2022/08/06 11:39:23;;;;;;;0.22;0.22;;;23.20;99.90;;;;;;5042780;28;20048;-66
2022/08/06 11:41:53;;;;;;;0.10;0.10;;;23.50;99.30;;;;;;5045511;28;20413;-66
2022/08/06 11:44:25;;;;;;;0.00;0.00;;;23.60;99.70;;;;;;5047408;28;20500;-66
2022/08/06 11:47:06;;;;;;;0.00;0.00;;;23.40;99.90;;;;;;5050919;28;20037;-66
2022/08/06 11:49:37;;;;;;;0.00;0.00;;;22.70;99.50;;;;;;5050013;28;20056;-66
2022/08/06 11:52:03;;;;;;;0.10;0.10;;;22.20;99.90;;;;;;5042707;28;20049;-66
2022/08/06 11:54:57;;;;;;;0.15;0.15;;;22.40;99.80;;;;;;5041758;28;20045;-67
2022/08/06 11:57:24;;;;;;;0.03;0.03;;;23.00;99.00;;;;;;5049762;28;20060;-66
2022/08/06 11:59:55;;;;;;;0.00;0.00;;;23.10;98.30;;;;;;5050936;28;20052;-67
2022/08/06 12:02:46;;;;;;;0.00;0.00;;;22.90;98.10;;;;;;5043124;28;20053;-66
2022/08/06 12:05:14;;;;;;;0.08;0.08;;;22.70;99.00;;;;;;5033908;28;20128;-66
2022/08/06 12:07:43;;;;;;;0.22;0.22;;;22.80;99.30;;;;;;5030291;28;20079;-66
2022/08/06 12:10:11;;;;;;;0.10;0.10;;;23.20;99.90;;;;;;5043337;28;20080;-66
2022/08/06 12:12:45;;;;;;;0.00;0.00;;;22.70;98.50;;;;;;5042462;28;20049;-66
2022/08/06 12:15:19;;;;;;;0.03;0.03;;;22.40;99.90;;;;;;5031643;28;20041;-66
2022/08/06 12:17:53;;;;;;;0.00;0.00;;;22.20;99.90;;;;;;5030222;28;20045;-66
2022/08/06 12:20:40;;;;;;;0.00;0.00;;;22.80;99.90;;;;;;5030127;28;20084;-66
2022/08/06 12:23:16;;;;;;;0.30;0.30;;;23.30;99.90;;;;;;5043229;28;20059;-66
2022/08/06 12:25:45;;;;;;;0.00;0.00;;;22.60;98.90;;;;;;5031674;28;20045;-66
2022/08/06 12:28:13;;;;;;;0.00;0.00;;;22.30;99.90;;;;;;5035434;28;20049;-66
2022/08/06 12:30:46;;;;;;;0.00;0.00;;;22.10;99.90;;;;;;5057122;28;20050;-66
2022/08/06 12:33:12;;;;;;;0.13;0.13;;;22.30;99.70;;;;;;5029991;28;20085;-66
2022/08/06 12:35:58;;;;;;;0.17;0.17;;;22.80;99.60;;;;;;5030619;28;20041;-66
2022/08/06 12:38:29;;;;;;;0.00;0.00;;;23.30;99.90;;;;;;5035850;28;20037;-66
2022/08/06 12:41:04;;;;;;;0.00;0.00;;;22.80;99.60;;;;;;5045177;28;20037;-66
2022/08/06 12:43:31;;;;;;;0.00;0.00;;;22.70;99.90;;;;;;5029306;28;20045;-66
2022/08/06 12:46:00;;;;;;;0.00;0.00;;;23.30;99.70;;;;;;5030419;28;20421;-66
2022/08/06 12:48:26;;;;;;;0.00;0.00;;;23.70;99.00;;;;;;5030108;28;20128;-66
2022/08/06 12:51:09;;;;;;;0.00;0.00;;;23.90;98.40;;;;;;5028722;28;20449;-66
2022/08/06 12:53:40;;;;;;;0.00;0.00;;;24.20;98.00;;;;;;5029980;28;20037;-66
2022/08/06 12:56:06;;;;;;;0.22;0.22;;;24.50;98.90;;;;;;5029900;28;20680;-66
2022/08/06 12:58:35;;;;;;;0.10;0.10;;;24.50;97.70;;;;;;5040838;28;20041;-66
2022/08/06 13:01:02;;;;;;;0.00;0.00;;;24.60;97.70;;;;;;5049056;28;20515;-66
2022/08/06 13:03:29;;;;;;;0.08;0.08;;;23.90;97.40;;;;;;5029376;28;20060;-67
2022/08/06 13:05:58;;;;;;;0.20;0.20;;;23.20;97.70;;;;;;5029483;28;20046;-66
2022/08/06 13:08:25;;;;;;;0.00;0.00;;;22.80;98.90;;;;;;5031277;28;20038;-66